Paddington, United Kingdom
Current Conditions -  °F | °C
As of 1:50 PM on Wednesday 28 Jan 2015 (Local Time) from EGLC Reporting Station
Scattered Clouds Scattered Clouds  
Wind Chill: 35°   Ceiling: Unl
Heat Index: 45°   Visibility: 6mi
Dew Point: 34°   Wind: 25mph
Humidity: 66%   Direction: 280°W
Pressure: 29.53"   Gusts: NA
Location:  51.51°N, 0.17°W
Report Text: EGLC 281350Z 28022KT 9999 FEW016 SCT022 07/01 Q1000
Loading
Personal Weather Stations






























Interactive Weather Map New forecast layout! Learn more

10-Day Weather Forecast

Advertisements
Track Severe Weather on mobile